createdAt,value
2017-12-22T00:01:35.678Z,8.00
2017-12-22T00:04:03.202Z,7.90
2017-12-22T00:06:30.716Z,7.90
2017-12-22T00:08:58.204Z,8.00
2017-12-22T00:11:25.757Z,8.00
2017-12-22T00:13:53.374Z,8.00
2017-12-22T00:16:21.040Z,8.00
2017-12-22T00:18:48.654Z,8.00
2017-12-22T00:21:16.230Z,8.00
2017-12-22T00:23:43.816Z,7.90
2017-12-22T00:26:11.451Z,8.00
2017-12-22T00:28:39.012Z,8.00
2017-12-22T00:31:06.482Z,8.00
2017-12-22T00:33:34.016Z,8.00
2017-12-22T00:36:01.582Z,8.00
2017-12-22T00:38:29.070Z,8.00
2017-12-22T00:40:56.636Z,8.00
2017-12-22T00:43:24.190Z,8.10
2017-12-22T00:46:02.425Z,8.10
2017-12-22T00:48:29.929Z,8.00
2017-12-22T00:50:57.427Z,8.00
2017-12-22T00:53:24.913Z,8.10
2017-12-22T00:55:52.418Z,8.10
2017-12-22T00:58:19.915Z,8.00
2017-12-22T01:00:47.642Z,8.00
2017-12-22T01:03:15.814Z,8.00
2017-12-22T01:05:43.538Z,7.90
2017-12-22T01:08:11.196Z,7.90
2017-12-22T01:10:38.750Z,7.90
2017-12-22T01:13:06.331Z,7.90
2017-12-22T01:15:39.662Z,8.00
2017-12-22T01:18:12.713Z,8.00
2017-12-22T01:20:40.434Z,8.00
2017-12-22T01:23:08.730Z,8.00
2017-12-22T01:25:36.660Z,8.00
2017-12-22T01:28:04.370Z,8.00
2017-12-22T01:30:31.953Z,8.00
2017-12-22T01:32:59.526Z,8.10
2017-12-22T01:35:27.191Z,8.10
2017-12-22T01:37:54.789Z,8.10
2017-12-22T01:40:22.315Z,8.10
2017-12-22T01:42:49.883Z,8.00
2017-12-22T01:45:17.543Z,8.00
2017-12-22T01:47:45.121Z,7.90
2017-12-22T01:50:12.632Z,7.90
2017-12-22T01:52:40.121Z,7.90
2017-12-22T01:55:07.730Z,7.90
2017-12-22T01:57:35.323Z,7.90
2017-12-22T02:00:03.719Z,7.90
2017-12-22T02:02:32.150Z,7.90
2017-12-22T02:04:59.797Z,7.90
2017-12-22T02:07:27.405Z,8.00
2017-12-22T02:09:55.391Z,8.00
2017-12-22T02:12:23.187Z,8.00
2017-12-22T02:14:50.860Z,7.90
2017-12-22T02:17:18.441Z,7.90
2017-12-22T02:19:45.999Z,7.90
2017-12-22T02:22:13.491Z,7.80
2017-12-22T02:24:41.771Z,7.70
2017-12-22T02:27:09.309Z,7.70
2017-12-22T02:29:36.832Z,7.60
2017-12-22T02:32:04.364Z,7.60
2017-12-22T02:34:31.996Z,7.50
2017-12-22T02:36:59.572Z,7.40
2017-12-22T02:39:27.079Z,7.40
2017-12-22T02:41:54.619Z,7.40
2017-12-22T02:44:22.163Z,7.40
2017-12-22T02:46:50.570Z,7.50
2017-12-22T02:49:18.098Z,7.40
2017-12-22T02:51:46.380Z,7.40
2017-12-22T02:54:13.925Z,7.40
2017-12-22T02:56:41.494Z,7.40
2017-12-22T02:59:10.288Z,7.30
2017-12-22T03:01:38.666Z,7.30
2017-12-22T03:04:06.162Z,7.30
2017-12-22T03:06:33.666Z,7.20
2017-12-22T03:09:01.153Z,7.20
2017-12-22T03:11:28.714Z,7.10
2017-12-22T03:13:56.248Z,7.10
2017-12-22T03:16:24.534Z,7.20
2017-12-22T03:18:52.848Z,7.20
2017-12-22T03:21:20.515Z,7.20
2017-12-22T03:23:48.202Z,7.20
2017-12-22T03:26:15.739Z,7.10
2017-12-22T03:28:43.301Z,7.20
2017-12-22T03:31:10.797Z,7.20
2017-12-22T03:33:38.471Z,7.20
2017-12-22T03:36:07.650Z,7.20
2017-12-22T03:38:35.248Z,7.20
2017-12-22T03:41:02.827Z,7.20
2017-12-22T03:43:30.459Z,7.10
2017-12-22T03:45:58.012Z,7.00
2017-12-22T03:48:25.553Z,6.90
2017-12-22T03:50:53.220Z,6.90
2017-12-22T03:53:21.499Z,7.00
2017-12-22T03:55:49.061Z,7.00
2017-12-22T03:58:16.601Z,7.00
2017-12-22T04:00:44.235Z,7.00
2017-12-22T04:03:11.745Z,7.10
2017-12-22T04:05:40.014Z,7.10
2017-12-22T04:08:07.551Z,7.10
2017-12-22T04:10:35.044Z,7.10
2017-12-22T04:13:02.756Z,7.10
2017-12-22T04:15:30.378Z,7.10
2017-12-22T04:17:57.892Z,7.10
2017-12-22T04:20:25.539Z,7.10
2017-12-22T04:22:53.061Z,7.20
2017-12-22T04:25:20.536Z,7.20
2017-12-22T04:27:48.050Z,7.30
2017-12-22T04:30:15.556Z,7.20
2017-12-22T04:32:43.183Z,7.30
2017-12-22T04:35:10.714Z,7.40
2017-12-22T04:37:38.263Z,7.50
2017-12-22T04:40:06.594Z,7.40
2017-12-22T04:42:34.119Z,7.50
2017-12-22T04:45:01.754Z,7.50
2017-12-22T04:47:29.277Z,7.50
2017-12-22T04:49:56.766Z,7.40
2017-12-22T04:52:24.378Z,7.40
2017-12-22T04:54:51.906Z,7.50
2017-12-22T04:57:19.637Z,7.40
2017-12-22T04:59:47.209Z,7.40
2017-12-22T05:02:14.800Z,7.50
2017-12-22T05:04:43.127Z,7.50
2017-12-22T05:07:10.716Z,7.50
2017-12-22T05:09:39.985Z,7.60
2017-12-22T05:12:07.569Z,7.60
2017-12-22T05:14:35.132Z,7.60
2017-12-22T05:17:03.601Z,7.50
2017-12-22T05:19:31.241Z,7.50
2017-12-22T05:21:58.978Z,7.50
2017-12-22T05:24:27.442Z,7.60
2017-12-22T05:26:55.175Z,7.50
2017-12-22T05:29:22.917Z,7.50
2017-12-22T05:31:51.333Z,7.50
2017-12-22T05:34:18.846Z,7.50
2017-12-22T05:36:46.331Z,7.60
2017-12-22T05:39:13.888Z,7.50
2017-12-22T05:41:41.393Z,7.60
2017-12-22T05:44:08.895Z,7.60
2017-12-22T05:46:36.375Z,7.60
2017-12-22T05:49:03.926Z,7.60
2017-12-22T05:51:31.452Z,7.60
2017-12-22T05:53:59.026Z,7.60
2017-12-22T05:56:26.549Z,7.60
2017-12-22T05:58:54.770Z,7.50
2017-12-22T06:01:22.322Z,7.50
2017-12-22T06:03:51.131Z,7.50
2017-12-22T06:06:18.794Z,7.40
2017-12-22T06:08:46.544Z,7.40
2017-12-22T06:11:14.061Z,7.30
2017-12-22T06:13:45.396Z,7.30
2017-12-22T06:16:13.357Z,7.30
2017-12-22T06:18:44.016Z,7.30
2017-12-22T06:21:11.605Z,7.40
2017-12-22T06:23:39.253Z,7.50
2017-12-22T06:26:07.031Z,7.50
2017-12-22T06:28:34.910Z,7.50
2017-12-22T06:31:02.808Z,7.50
2017-12-22T06:33:31.399Z,7.50
2017-12-22T06:35:59.339Z,7.50
2017-12-22T06:38:27.024Z,7.50
2017-12-22T06:40:55.704Z,7.50
2017-12-22T06:43:23.425Z,7.50
2017-12-22T06:45:58.996Z,7.50
2017-12-22T06:51:32.146Z,7.60
2017-12-22T06:53:59.827Z,7.60
2017-12-22T06:56:46.876Z,7.60
2017-12-22T06:59:14.772Z,7.50
2017-12-22T07:01:42.616Z,7.50
2017-12-22T07:04:12.186Z,7.50
2017-12-22T07:06:39.702Z,7.40
2017-12-22T07:09:07.362Z,7.50
2017-12-22T07:11:35.141Z,7.50
2017-12-22T07:14:02.849Z,7.60
2017-12-22T07:16:30.399Z,7.50
2017-12-22T07:18:57.942Z,7.60
2017-12-22T07:21:36.894Z,7.60
2017-12-22T07:24:04.395Z,7.60
2017-12-22T07:26:31.973Z,7.70
2017-12-22T07:28:59.455Z,7.80
2017-12-22T07:31:26.978Z,7.80
2017-12-22T07:33:54.486Z,7.90
2017-12-22T07:36:21.968Z,7.90
2017-12-22T07:38:50.234Z,7.80
2017-12-22T07:41:17.779Z,7.70
2017-12-22T07:43:45.263Z,7.80
2017-12-22T07:46:13.521Z,7.70
2017-12-22T07:48:40.983Z,7.70
2017-12-22T07:51:08.446Z,7.80
2017-12-22T07:53:35.915Z,7.80
2017-12-22T07:56:04.166Z,7.60
2017-12-22T07:58:31.655Z,7.60
2017-12-22T08:00:59.148Z,7.60
2017-12-22T08:03:26.611Z,7.60
2017-12-22T08:05:54.099Z,7.60
2017-12-22T08:08:21.562Z,7.60
2017-12-22T08:10:49.019Z,7.50
2017-12-22T08:13:17.268Z,7.60
2017-12-22T08:15:44.758Z,7.60
2017-12-22T08:18:12.218Z,7.70
2017-12-22T08:20:40.486Z,7.70
2017-12-22T08:23:08.736Z,7.70
2017-12-22T08:25:36.222Z,7.70
2017-12-22T08:28:03.724Z,7.80
2017-12-22T08:30:31.195Z,7.80
2017-12-22T08:32:58.667Z,7.80
2017-12-22T08:35:26.146Z,7.80
2017-12-22T08:37:53.617Z,7.80
2017-12-22T08:40:21.130Z,7.80
2017-12-22T08:42:48.624Z,7.60
2017-12-22T08:45:16.852Z,7.70
2017-12-22T08:47:44.326Z,7.70
2017-12-22T08:50:11.796Z,7.70
2017-12-22T08:52:39.266Z,7.70
2017-12-22T08:55:07.525Z,7.70
2017-12-22T08:57:34.989Z,7.70
2017-12-22T09:00:02.481Z,7.70
2017-12-22T09:02:29.953Z,7.60
2017-12-22T09:04:57.398Z,7.60
2017-12-22T09:07:24.841Z,7.50
2017-12-22T09:09:52.297Z,7.60
2017-12-22T09:12:19.770Z,7.50
2017-12-22T09:14:47.314Z,7.50
2017-12-22T09:17:14.867Z,7.50
2017-12-22T09:19:43.146Z,7.50
2017-12-22T09:22:10.662Z,7.50
2017-12-22T09:24:38.166Z,7.60
2017-12-22T09:27:05.667Z,7.60
2017-12-22T09:29:33.184Z,7.60
2017-12-22T09:32:00.747Z,7.50
2017-12-22T09:34:28.315Z,7.40
2017-12-22T09:36:55.827Z,7.30
2017-12-22T09:39:23.395Z,7.40
2017-12-22T09:41:50.937Z,7.40
2017-12-22T09:44:18.446Z,7.50
2017-12-22T09:46:46.007Z,7.50
2017-12-22T09:49:13.595Z,7.60
2017-12-22T09:51:41.122Z,7.60
2017-12-22T09:54:08.705Z,7.60
2017-12-22T09:56:36.231Z,7.60
2017-12-22T09:59:03.775Z,7.70
2017-12-22T10:01:31.375Z,7.60
2017-12-22T10:03:58.894Z,7.60
2017-12-22T10:06:26.380Z,7.50
2017-12-22T10:08:53.878Z,7.40
2017-12-22T10:11:21.374Z,7.40
2017-12-22T10:13:50.559Z,7.50
2017-12-22T10:16:18.179Z,7.40
2017-12-22T10:18:47.655Z,7.50
2017-12-22T10:21:15.206Z,7.40
2017-12-22T10:23:42.649Z,7.50
2017-12-22T10:26:10.996Z,7.40
2017-12-22T10:28:38.470Z,7.50
2017-12-22T10:31:06.055Z,7.60
2017-12-22T10:33:34.298Z,7.70
2017-12-22T10:36:01.773Z,7.70
2017-12-22T10:38:29.634Z,7.80
2017-12-22T10:40:57.142Z,7.90
2017-12-22T10:43:24.616Z,7.90
2017-12-22T10:45:52.154Z,7.90
2017-12-22T10:48:19.618Z,7.90
2017-12-22T10:50:47.097Z,7.90
2017-12-22T10:53:14.600Z,7.90
2017-12-22T10:55:42.137Z,7.90
2017-12-22T10:58:09.782Z,7.80
2017-12-22T11:00:37.336Z,7.70
2017-12-22T11:03:04.868Z,7.60
2017-12-22T11:05:32.400Z,7.60
2017-12-22T11:07:59.880Z,7.60
2017-12-22T11:10:27.372Z,7.60
2017-12-22T11:12:54.856Z,7.50
2017-12-22T11:15:23.268Z,7.60
2017-12-22T11:17:50.771Z,7.60
2017-12-22T11:20:18.256Z,7.60
2017-12-22T11:22:45.726Z,7.60
2017-12-22T11:25:13.218Z,7.60
2017-12-22T11:27:40.710Z,7.70
2017-12-22T11:30:08.195Z,7.70
2017-12-22T11:32:36.537Z,7.60
2017-12-22T11:35:04.215Z,7.60
2017-12-22T11:37:33.012Z,7.60
2017-12-22T11:40:26.440Z,7.70
2017-12-22T11:43:09.690Z,7.70
2017-12-22T11:45:41.048Z,7.80
2017-12-22T11:48:12.872Z,7.70
2017-12-22T11:53:31.847Z,7.80
2017-12-22T11:55:59.358Z,7.60
2017-12-22T11:58:26.863Z,7.60
2017-12-22T12:00:54.339Z,7.60
2017-12-22T12:03:21.823Z,7.70
2017-12-22T12:05:51.046Z,7.80
2017-12-22T12:08:18.534Z,7.80
2017-12-22T12:10:46.016Z,7.90
2017-12-22T12:13:14.826Z,8.00
2017-12-22T12:15:42.294Z,8.00
2017-12-22T12:18:09.744Z,8.10
2017-12-22T12:20:37.223Z,8.10
2017-12-22T12:23:04.759Z,8.10
2017-12-22T12:25:32.302Z,8.10
2017-12-22T12:28:00.571Z,8.00
2017-12-22T12:30:29.179Z,8.00
2017-12-22T12:32:56.666Z,8.00
2017-12-22T12:35:38.859Z,8.00
2017-12-22T12:38:06.378Z,8.10
2017-12-22T12:43:45.267Z,8.10
2017-12-22T12:46:29.176Z,8.10
2017-12-22T12:48:59.571Z,8.10
2017-12-22T12:51:27.159Z,8.20
2017-12-22T12:53:54.644Z,8.20
2017-12-22T12:56:22.220Z,8.20
2017-12-22T12:58:49.732Z,8.10
2017-12-22T13:01:17.999Z,8.10
2017-12-22T13:03:46.276Z,8.20
2017-12-22T13:06:14.523Z,8.10
2017-12-22T13:08:42.007Z,8.10
2017-12-22T13:11:09.496Z,8.10
2017-12-22T13:13:36.957Z,8.10
2017-12-22T13:16:04.438Z,8.10
2017-12-22T13:18:31.936Z,8.10
2017-12-22T13:20:59.425Z,7.90
2017-12-22T13:23:28.291Z,7.80
2017-12-22T13:25:55.826Z,7.70
2017-12-22T13:28:25.302Z,7.70
2017-12-22T13:30:52.879Z,7.70
2017-12-22T13:33:20.373Z,7.70
2017-12-22T13:35:51.025Z,7.80
2017-12-22T13:38:18.506Z,7.80
2017-12-22T13:40:45.971Z,7.80
2017-12-22T13:43:13.444Z,7.70
2017-12-22T13:45:40.946Z,7.70
2017-12-22T13:48:08.537Z,7.80
2017-12-22T13:50:36.097Z,7.80
2017-12-22T13:53:03.615Z,7.70
2017-12-22T13:55:38.589Z,7.60
2017-12-22T13:58:10.005Z,7.60
2017-12-22T14:00:37.667Z,7.60
2017-12-22T14:03:05.220Z,7.60
2017-12-22T14:05:33.629Z,7.50
2017-12-22T14:08:01.261Z,7.60
2017-12-22T14:10:28.799Z,7.60
2017-12-22T14:12:57.521Z,7.70
2017-12-22T14:20:58.470Z,7.60
2017-12-22T14:23:27.159Z,7.60
2017-12-22T14:26:24.488Z,7.60
2017-12-22T14:35:07.439Z,7.70
2017-12-22T14:37:57.550Z,7.70
2017-12-22T14:40:52.651Z,7.70
2017-12-22T14:43:27.872Z,7.70
2017-12-22T14:46:00.725Z,7.80
2017-12-22T14:48:36.194Z,7.80
2017-12-22T14:54:07.304Z,7.80
2017-12-22T15:02:44.620Z,7.70
2017-12-22T15:05:14.057Z,7.70
2017-12-22T15:10:42.683Z,7.60
2017-12-22T15:18:00.550Z,7.50
2017-12-22T15:20:36.503Z,7.40
2017-12-22T15:23:04.175Z,7.30
2017-12-22T15:25:32.460Z,7.30
2017-12-22T15:28:00.974Z,7.20
2017-12-22T15:30:28.622Z,7.10
2017-12-22T15:32:56.891Z,6.90
2017-12-22T15:35:24.357Z,6.90
2017-12-22T15:37:51.915Z,6.80
2017-12-22T15:40:24.189Z,6.70
2017-12-22T15:42:54.315Z,6.70
2017-12-22T15:45:31.167Z,6.50
2017-12-22T15:48:01.701Z,6.50
2017-12-22T15:50:29.204Z,6.40
2017-12-22T15:52:56.684Z,6.40
2017-12-22T15:55:24.223Z,6.30
2017-12-22T15:57:51.714Z,6.30
2017-12-22T16:00:19.507Z,6.30
2017-12-22T16:02:47.034Z,6.20
2017-12-22T16:05:14.552Z,6.30
2017-12-22T16:07:42.051Z,6.20
2017-12-22T16:10:10.559Z,6.20
2017-12-22T16:12:38.117Z,6.20
2017-12-22T16:15:06.811Z,6.10
2017-12-22T16:17:34.508Z,6.10
2017-12-22T16:20:01.990Z,6.10
2017-12-22T16:22:29.510Z,6.00
2017-12-22T16:24:56.991Z,6.00
2017-12-22T16:27:29.086Z,6.10
2017-12-22T16:29:59.017Z,6.00
2017-12-22T16:32:26.977Z,6.00
2017-12-22T16:34:54.583Z,6.00
2017-12-22T16:37:37.079Z,6.00
2017-12-22T16:40:04.589Z,6.00
2017-12-22T16:42:32.386Z,6.00
2017-12-22T16:45:00.142Z,6.00
2017-12-22T16:47:27.691Z,5.90
2017-12-22T16:49:55.359Z,5.90
2017-12-22T16:52:23.072Z,5.90
2017-12-22T16:54:50.754Z,5.90
2017-12-22T16:57:18.261Z,5.80
2017-12-22T16:59:45.916Z,5.80
2017-12-22T17:02:22.954Z,5.80
2017-12-22T17:04:50.527Z,5.80
2017-12-22T17:07:18.037Z,5.80
2017-12-22T17:09:47.480Z,5.80
2017-12-22T17:12:16.690Z,5.80
2017-12-22T17:14:45.262Z,5.80
2017-12-22T17:17:12.765Z,5.80
2017-12-22T17:19:40.307Z,5.60
2017-12-22T17:22:07.827Z,5.60
2017-12-22T17:24:35.346Z,5.70
2017-12-22T17:27:02.844Z,5.70
2017-12-22T17:29:30.347Z,5.70
2017-12-22T17:31:58.786Z,5.70
2017-12-22T17:34:26.254Z,5.70
2017-12-22T17:36:53.707Z,5.80
2017-12-22T17:39:21.308Z,5.90
2017-12-22T17:41:49.538Z,6.00
2017-12-22T17:44:17.140Z,6.00
2017-12-22T17:46:44.659Z,6.10
2017-12-22T17:49:12.149Z,6.10
2017-12-22T17:51:40.385Z,6.10
2017-12-22T17:54:07.850Z,6.10
2017-12-22T17:56:35.311Z,6.10
2017-12-22T17:59:02.807Z,6.10
2017-12-22T18:01:31.046Z,6.20
2017-12-22T18:03:58.537Z,6.20
2017-12-22T18:06:29.343Z,6.20
2017-12-22T18:08:56.912Z,6.20
2017-12-22T18:11:28.380Z,6.10
2017-12-22T18:22:36.798Z,5.70
2017-12-22T18:25:05.355Z,5.60
2017-12-22T18:30:44.779Z,5.50
2017-12-22T18:33:15.227Z,5.50
2017-12-22T18:35:43.039Z,5.50
2017-12-22T18:38:13.361Z,5.50
2017-12-22T18:40:44.360Z,5.50
2017-12-22T18:43:16.612Z,5.50
2017-12-22T18:45:44.499Z,5.60
2017-12-22T18:48:12.211Z,5.60
2017-12-22T18:50:39.971Z,5.60
2017-12-22T18:53:08.675Z,5.60
2017-12-22T18:55:37.713Z,5.70
2017-12-22T18:58:05.519Z,5.70
2017-12-22T19:00:33.369Z,5.80
2017-12-22T19:03:00.995Z,5.90
2017-12-22T19:05:28.615Z,5.90
2017-12-22T19:07:56.978Z,5.90
2017-12-22T19:10:25.516Z,6.00
2017-12-22T19:12:54.477Z,6.00
2017-12-22T19:15:22.402Z,6.00
2017-12-22T19:17:56.100Z,6.10
2017-12-22T19:20:23.628Z,6.20
2017-12-22T19:22:51.242Z,6.20
2017-12-22T19:25:18.827Z,6.20
2017-12-22T19:27:47.083Z,6.20
2017-12-22T19:30:15.638Z,6.20
2017-12-22T19:32:44.270Z,6.30
2017-12-22T19:35:11.775Z,6.30
2017-12-22T19:37:39.220Z,6.40
2017-12-22T19:40:06.667Z,6.30
2017-12-22T19:42:34.116Z,6.30
2017-12-22T19:45:02.351Z,6.30
2017-12-22T19:47:29.830Z,6.30
2017-12-22T19:49:57.286Z,6.30
2017-12-22T19:52:28.995Z,6.20
2017-12-22T19:54:57.686Z,6.20
2017-12-22T19:57:25.575Z,6.20
2017-12-22T21:43:40.858Z,6.30
2017-12-22T21:46:11.066Z,6.30
2017-12-22T21:48:38.665Z,6.30
2017-12-22T21:51:12.152Z,6.50
2017-12-22T21:59:37.252Z,6.50
2017-12-22T22:36:44.228Z,6.90
2017-12-22T22:39:27.407Z,6.90
2017-12-22T22:41:55.658Z,6.90
2017-12-22T22:44:28.868Z,6.90
2017-12-22T22:46:56.897Z,6.80
2017-12-22T22:49:24.705Z,6.80
2017-12-22T22:51:52.270Z,6.90
2017-12-22T22:54:19.842Z,7.00
2017-12-22T22:56:48.740Z,7.00
2017-12-22T22:59:24.937Z,6.90
2017-12-22T23:01:54.963Z,7.00
2017-12-22T23:04:22.714Z,7.00
2017-12-22T23:09:37.363Z,7.00
2017-12-22T23:12:16.944Z,7.10
2017-12-22T23:17:56.506Z,7.20
2017-12-22T23:20:28.093Z,7.10
2017-12-22T23:23:09.560Z,7.10
2017-12-22T23:25:50.712Z,7.00
